Time;durP1;ratioP1;P1;durP2;ratioP2;P2;SDS_P1;SDS_P2;PMS_P1;PMS_P2;Temp;Humidity;BMP_temperature;BMP_pressure;BME280_temperature;BME280_humidity;BME280_pressure;Samples;Min_cycle;Max_cycle;Signal;HPM_P1;HPM_P2
2021/06/04 00:00:06;;;;;;;14.23;7.63;;;410.30;1561.60;;;;;;5095516;28;20023;-69
2021/06/04 00:02:32;;;;;;;12.70;7.90;;;410.30;1561.60;;;;;;5095425;28;20153;-69
2021/06/04 00:04:57;;;;;;;20.02;8.50;;;410.30;1561.60;;;;;;5095294;28;20058;-69
2021/06/04 00:07:23;;;;;;;16.25;8.07;;;410.30;1561.60;;;;;;5095444;28;20020;-69
2021/06/04 00:09:49;;;;;;;15.80;8.45;;;410.30;1561.60;;;;;;5095405;28;20381;-69
2021/06/04 00:12:15;;;;;;;16.60;8.32;;;410.30;1561.60;;;;;;5094997;28;20032;-69
2021/06/04 00:14:42;;;;;;;22.48;8.38;;;410.20;1561.60;;;;;;5095252;28;20111;-69
2021/06/04 00:17:23;;;;;;;20.02;9.05;;;410.20;1587.20;;;;;;5095170;28;20016;-69
2021/06/04 00:19:50;;;;;;;18.85;8.27;;;410.20;1587.20;;;;;;5095034;28;20020;-69
2021/06/04 00:22:24;;;;;;;19.05;9.25;;;410.10;1561.60;;;;;;5095227;28;20016;-68
2021/06/04 00:24:53;;;;;;;15.77;8.50;;;410.10;1561.60;;;;;;5094914;28;20028;-68
2021/06/04 00:27:21;;;;;;;13.68;7.57;;;410.10;1561.60;;;;;;5094662;28;20343;-69
2021/06/04 00:29:47;;;;;;;15.35;9.35;;;410.20;1561.60;;;;;;5094882;28;20020;-68
2021/06/04 00:32:15;;;;;;;18.38;8.38;;;410.10;1561.60;;;;;;5094773;28;20094;-68
2021/06/04 00:34:41;;;;;;;18.48;8.45;;;410.10;1561.60;;;;;;5094613;28;20032;-69
2021/06/04 00:37:07;;;;;;;13.65;7.85;;;410.10;1561.60;;;;;;5094621;28;20020;-68
2021/06/04 00:39:35;;;;;;;21.70;7.97;;;410.10;1561.60;;;;;;5094578;28;20198;-68
2021/06/04 00:42:24;;;;;;;14.98;7.78;;;410.00;1587.20;;;;;;5093365;28;20024;-68
2021/06/04 00:44:52;;;;;;;16.40;7.68;;;410.10;1561.60;;;;;;5094508;28;20030;-68
2021/06/04 00:47:18;;;;;;;15.00;7.15;;;410.00;1561.60;;;;;;5093853;28;20103;-68
2021/06/04 00:49:44;;;;;;;10.90;6.38;;;410.00;1561.60;;;;;;5094356;28;20027;-68
2021/06/04 00:52:25;;;;;;;16.00;5.82;;;409.90;1561.60;;;;;;5094425;28;20016;-68
2021/06/04 00:54:54;;;;;;;8.68;5.50;;;409.90;1561.60;;;;;;5094358;28;20037;-68
2021/06/04 00:57:20;;;;;;;10.07;5.75;;;409.90;1561.60;;;;;;5094207;28;20055;-68
2021/06/04 00:59:46;;;;;;;9.20;5.68;;;409.80;1536.00;;;;;;5094657;28;20024;-68
2021/06/04 01:02:16;;;;;;;6.53;5.10;;;409.80;1536.00;;;;;;5094187;28;20026;-68
2021/06/04 01:04:42;;;;;;;8.27;4.78;;;409.80;1536.00;;;;;;5094177;28;20496;-68
2021/06/04 01:07:29;;;;;;;7.28;4.90;;;409.80;1536.00;;;;;;5094234;28;20024;-68
2021/06/04 01:10:24;;;;;;;7.63;4.88;;;409.70;1561.60;;;;;;5092972;28;20496;-68
2021/06/04 01:13:29;;;;;;;7.65;4.85;;;409.70;1561.60;;;;;;5094032;28;20032;-68
2021/06/04 01:16:06;;;;;;;6.45;4.43;;;409.60;1561.60;;;;;;5093963;28;20028;-68
2021/06/04 01:18:52;;;;;;;14.02;5.13;;;409.60;1561.60;;;;;;5094064;28;20020;-68
2021/06/04 01:21:42;;;;;;;9.80;4.45;;;384.90;1561.60;;;;;;5093920;28;20031;-68
2021/06/04 01:24:40;;;;;;;7.47;4.30;;;384.90;1561.60;;;;;;5093908;28;20044;-67
2021/06/04 01:27:19;;;;;;;11.00;4.35;;;384.90;1561.60;;;;;;5031712;28;20045;-68
2021/06/04 01:30:05;;;;;;;11.50;5.72;;;384.80;1561.60;;;;;;5031619;28;20021;-68
2021/06/04 01:32:35;;;;;;;8.40;4.85;;;384.80;1561.60;;;;;;5031448;28;20022;-68
2021/06/04 01:35:08;;;;;;;9.30;4.53;;;384.80;1561.60;;;;;;5015546;28;20088;-67
2021/06/04 01:37:34;;;;;;;8.93;4.05;;;384.80;1587.20;;;;;;5031610;28;20402;-67
2021/06/04 01:40:08;;;;;;;5.70;4.20;;;384.70;1587.20;;;;;;5031478;28;20028;-67
2021/06/04 01:42:37;;;;;;;12.82;4.80;;;384.70;1587.20;;;;;;5031572;28;20026;-67
2021/06/04 01:45:12;;;;;;;10.75;4.72;;;384.70;1587.20;;;;;;5031496;28;20033;-67
2021/06/04 01:47:41;;;;;;;8.85;4.25;;;384.70;1587.20;;;;;;5031697;28;20041;-67
2021/06/04 01:50:33;;;;;;;9.55;4.43;;;384.70;1587.20;;;;;;5031335;28;20391;-67
2021/06/04 01:53:04;;;;;;;8.45;4.10;;;384.70;1587.20;;;;;;5031325;28;20117;-67
2021/06/04 01:55:34;;;;;;;12.00;4.40;;;384.60;1587.20;;;;;;5031505;28;20030;-67
2021/06/04 01:58:10;;;;;;;9.60;4.72;;;384.60;1587.20;;;;;;5033357;28;20454;-67
2021/06/04 02:00:44;;;;;;;6.45;4.38;;;384.60;1587.20;;;;;;5035385;28;20029;-67
2021/06/04 02:03:14;;;;;;;11.20;4.72;;;384.60;1587.20;;;;;;5047410;28;20085;-67
2021/06/04 02:05:40;;;;;;;7.13;4.47;;;384.60;1587.20;;;;;;5097800;28;20416;-67
2021/06/04 02:08:11;;;;;;;8.68;4.68;;;384.60;1587.20;;;;;;5097906;28;20056;-67
2021/06/04 02:10:41;;;;;;;8.20;4.55;;;384.70;1587.20;;;;;;5097663;28;20023;-67
2021/06/04 02:13:10;;;;;;;8.40;4.30;;;384.70;1587.20;;;;;;5097366;28;20028;-67
2021/06/04 02:15:40;;;;;;;7.88;4.55;;;384.70;1561.60;;;;;;5097547;28;20370;-67
2021/06/04 02:18:20;;;;;;;9.43;4.75;;;384.70;1587.20;;;;;;5097313;28;20035;-67
2021/06/04 02:21:13;;;;;;;9.98;4.63;;;384.70;1561.60;;;;;;5097587;28;20032;-67
2021/06/04 02:23:50;;;;;;;11.90;4.85;;;384.70;1587.20;;;;;;5097096;28;20048;-67
2021/06/04 02:26:28;;;;;;;8.52;4.85;;;384.70;1561.60;;;;;;5097195;28;20035;-67
2021/06/04 02:29:05;;;;;;;8.07;4.70;;;384.80;1587.20;;;;;;5097113;28;20027;-68
2021/06/04 02:31:40;;;;;;;11.13;4.78;;;384.70;1561.60;;;;;;5097145;28;20028;-67
2021/06/04 02:34:14;;;;;;;15.05;5.70;;;384.80;1561.60;;;;;;5097077;28;20497;-67
2021/06/04 02:36:48;;;;;;;11.02;5.18;;;384.80;1587.20;;;;;;5097279;28;20070;-67
2021/06/04 02:39:19;;;;;;;12.10;5.53;;;384.80;1561.60;;;;;;5097196;28;20109;-67
2021/06/04 02:41:49;;;;;;;7.68;5.07;;;384.80;1587.20;;;;;;5097257;28;20013;-67
2021/06/04 02:44:25;;;;;;;14.35;5.75;;;384.70;1587.20;;;;;;5096946;28;20036;-67
2021/06/04 02:46:59;;;;;;;8.45;5.35;;;384.70;1587.20;;;;;;5096685;28;20087;-67
2021/06/04 02:49:28;;;;;;;7.88;5.40;;;384.80;1561.60;;;;;;5096914;28;20118;-67
2021/06/04 02:52:20;;;;;;;16.65;6.80;;;384.80;1587.20;;;;;;5096805;28;20377;-68
2021/06/04 02:54:45;;;;;;;12.40;6.18;;;384.80;1561.60;;;;;;5093581;28;20040;-67
2021/06/04 02:57:15;;;;;;;10.77;6.38;;;384.90;1587.20;;;;;;5096647;28;20016;-67
2021/06/04 02:59:47;;;;;;;16.73;6.65;;;384.90;1587.20;;;;;;5096536;28;20028;-67
2021/06/04 03:02:21;;;;;;;14.85;6.13;;;384.90;1561.60;;;;;;5096725;28;20020;-67
2021/06/04 03:04:50;;;;;;;10.07;5.88;;;384.90;1587.20;;;;;;5096577;28;20016;-68
2021/06/04 03:07:32;;;;;;;10.90;6.55;;;384.90;1561.60;;;;;;5096456;28;20028;-67
2021/06/04 03:09:59;;;;;;;19.50;6.95;;;409.60;1587.20;;;;;;5095523;28;20517;-66
2021/06/04 03:12:32;;;;;;;14.65;6.20;;;409.60;1587.20;;;;;;5096395;28;20058;-67
2021/06/04 03:14:59;;;;;;;15.40;7.03;;;409.60;1587.20;;;;;;5096397;28;20020;-67
2021/06/04 03:17:28;;;;;;;11.18;6.55;;;409.60;1587.20;;;;;;5096537;28;20024;-67
2021/06/04 03:19:54;;;;;;;13.85;7.32;;;409.60;1587.20;;;;;;5096413;28;20020;-66
2021/06/04 03:22:35;;;;;;;22.55;7.80;;;409.70;1587.20;;;;;;5095995;28;20032;-65
2021/06/04 03:25:08;;;;;;;22.00;7.28;;;409.70;1587.20;;;;;;5095485;28;20032;-66
2021/06/04 03:27:33;;;;;;;17.23;7.85;;;409.80;1587.20;;;;;;5094549;28;20477;-65
2021/06/04 03:29:59;;;;;;;11.32;7.00;;;409.80;1587.20;;;;;;5094476;28;20023;-65
2021/06/04 03:32:25;;;;;;;10.32;6.70;;;409.80;1561.60;;;;;;5094745;28;20031;-65
2021/06/04 03:34:51;;;;;;;11.65;6.68;;;409.80;1561.60;;;;;;5095641;28;20038;-66
2021/06/04 03:37:20;;;;;;;11.15;6.32;;;409.80;1561.60;;;;;;5096021;28;20431;-66
2021/06/04 03:39:47;;;;;;;12.52;6.05;;;409.80;1561.60;;;;;;5094275;28;20039;-66
2021/06/04 03:42:21;;;;;;;9.65;6.35;;;409.90;1536.00;;;;;;5095273;28;20185;-66
2021/06/04 03:44:48;;;;;;;11.10;5.88;;;409.90;1561.60;;;;;;5095808;28;20074;-67
2021/06/04 03:47:16;;;;;;;9.85;5.65;;;410.00;1536.00;;;;;;5095765;28;20110;-67
2021/06/04 03:49:41;;;;;;;13.05;6.80;;;410.00;1561.60;;;;;;5095705;28;20028;-66
2021/06/04 03:52:11;;;;;;;18.58;10.00;;;410.00;1536.00;;;;;;5095462;28;20024;-66
2021/06/04 03:54:41;;;;;;;23.10;12.77;;;410.10;1536.00;;;;;;5096013;28;20368;-66
2021/06/04 03:57:10;;;;;;;23.13;11.65;;;410.10;1536.00;;;;;;5095596;28;20022;-67
2021/06/04 03:59:36;;;;;;;20.92;11.13;;;410.20;1536.00;;;;;;5095752;28;20023;-66
2021/06/04 04:02:06;;;;;;;17.42;10.05;;;410.20;1536.00;;;;;;5095610;28;20024;-67
2021/06/04 04:04:32;;;;;;;19.73;10.50;;;410.20;1536.00;;;;;;5095126;28;20520;-67
2021/06/04 04:06:58;;;;;;;15.30;10.13;;;410.30;1536.00;;;;;;5095034;28;20029;-66
2021/06/04 04:09:24;;;;;;;22.25;12.02;;;410.30;1536.00;;;;;;5095044;28;20024;-66
2021/06/04 04:11:52;;;;;;;22.95;13.30;;;410.40;1536.00;;;;;;5095194;28;20494;-66
2021/06/04 04:14:20;;;;;;;23.67;11.52;;;410.40;1510.40;;;;;;5094992;28;20036;-67
2021/06/04 04:16:46;;;;;;;15.63;11.70;;;410.40;1510.40;;;;;;5095199;28;20020;-67
2021/06/04 04:19:12;;;;;;;17.20;10.48;;;410.50;1510.40;;;;;;5095407;28;20031;-66
2021/06/04 04:21:39;;;;;;;36.80;18.90;;;410.40;1510.40;;;;;;5095333;28;20021;-66
2021/06/04 04:24:13;;;;;;;61.10;22.48;;;410.50;1484.80;;;;;;5094990;28;20047;-67
2021/06/04 04:26:42;;;;;;;37.65;17.88;;;435.20;1510.40;;;;;;5095058;28;20020;-67
2021/06/04 04:29:09;;;;;;;29.63;14.75;;;435.20;1484.80;;;;;;5093613;28;20024;-67
2021/06/04 04:31:39;;;;;;;27.70;13.05;;;435.20;1510.40;;;;;;5094651;28;20044;-66
2021/06/04 04:34:06;;;;;;;19.30;9.85;;;435.30;1484.80;;;;;;5094879;28;20125;-68
2021/06/04 04:36:39;;;;;;;17.50;8.15;;;435.30;1510.40;;;;;;5094864;28;20043;-67
2021/06/04 04:39:11;;;;;;;13.25;7.43;;;435.40;1484.80;;;;;;5094659;28;20063;-66
2021/06/04 04:41:37;;;;;;;13.80;6.72;;;435.60;1459.20;;;;;;5094641;28;20557;-66
2021/06/04 04:44:05;;;;;;;11.90;6.57;;;435.60;1459.20;;;;;;5094595;28;20480;-67
2021/06/04 04:46:31;;;;;;;10.48;6.90;;;435.80;1459.20;;;;;;5094569;28;20028;-66
2021/06/04 04:48:57;;;;;;;9.57;6.25;;;435.90;1459.20;;;;;;5094414;28;20031;-66
2021/06/04 04:51:26;;;;;;;9.50;7.45;;;435.90;1433.60;;;;;;5094625;28;20050;-67
2021/06/04 04:53:51;;;;;;;7.88;5.97;;;436.00;1433.60;;;;;;5094706;28;20089;-67
2021/06/04 04:56:19;;;;;;;9.43;5.78;;;436.00;1408.00;;;;;;5094442;28;20028;-66
2021/06/04 04:58:45;;;;;;;10.30;5.03;;;436.10;1408.00;;;;;;5094356;28;20031;-67
2021/06/04 05:01:13;;;;;;;9.68;5.60;;;460.80;1433.60;;;;;;5094349;28;20059;-67
2021/06/04 05:03:39;;;;;;;7.75;4.57;;;460.80;1433.60;;;;;;5094434;28;20020;-67
2021/06/04 05:06:06;;;;;;;10.02;4.97;;;460.90;1433.60;;;;;;5094125;28;20020;-67
2021/06/04 05:08:32;;;;;;;8.95;5.55;;;460.90;1433.60;;;;;;5094310;28;20028;-67
2021/06/04 05:10:58;;;;;;;11.60;5.35;;;461.00;1408.00;;;;;;5094039;28;20378;-66
2021/06/04 05:13:24;;;;;;;10.15;4.75;;;461.00;1408.00;;;;;;5094047;28;20500;-69
2021/06/04 05:15:50;;;;;;;12.73;5.82;;;461.20;1408.00;;;;;;5094033;28;20024;-67
2021/06/04 05:18:18;;;;;;;11.00;5.25;;;461.20;1408.00;;;;;;5093930;28;20400;-67
2021/06/04 05:20:46;;;;;;;13.55;5.95;;;461.30;1408.00;;;;;;5093439;28;20016;-66
2021/06/04 05:23:13;;;;;;;16.75;6.10;;;461.50;1408.00;;;;;;5093397;28;20044;-68
2021/06/04 05:25:42;;;;;;;17.55;6.18;;;461.60;1408.00;;;;;;5093756;28;20020;-66
2021/06/04 05:28:10;;;;;;;16.45;6.20;;;486.40;1382.40;;;;;;5094105;28;20024;-67
2021/06/04 05:30:40;;;;;;;24.92;6.70;;;486.40;1382.40;;;;;;5093582;28;20012;-69
2021/06/04 05:33:07;;;;;;;12.55;5.22;;;486.50;1382.40;;;;;;5093120;28;20486;-67
2021/06/04 05:35:33;;;;;;;12.02;5.35;;;486.60;1382.40;;;;;;5092670;28;20024;-66
2021/06/04 05:37:59;;;;;;;8.63;5.65;;;486.70;1382.40;;;;;;5093374;28;20020;-69
2021/06/04 05:40:35;;;;;;;12.32;5.28;;;486.80;1382.40;;;;;;5093303;28;20068;-69
2021/06/04 05:43:04;;;;;;;13.27;5.88;;;486.80;1382.40;;;;;;5092998;28;20020;-65
2021/06/04 05:45:33;;;;;;;14.35;5.35;;;486.90;1382.40;;;;;;5093243;28;20526;-66
2021/06/04 05:47:59;;;;;;;11.38;5.25;;;487.00;1382.40;;;;;;5093369;28;20108;-68
2021/06/04 05:50:35;;;;;;;14.13;4.57;;;487.10;1382.40;;;;;;5093086;28;20120;-65
2021/06/04 05:53:01;;;;;;;9.13;4.43;;;487.20;1356.80;;;;;;5090357;28;20036;-66
2021/06/04 05:55:28;;;;;;;14.55;5.03;;;487.30;1356.80;;;;;;5092855;28;20089;-68
2021/06/04 05:57:54;;;;;;;8.18;4.95;;;512.00;1356.80;;;;;;5093035;28;20489;-68
2021/06/04 06:00:35;;;;;;;10.25;4.90;;;512.10;1331.20;;;;;;5092556;28;20028;-67
2021/06/04 06:03:06;;;;;;;9.85;5.55;;;512.30;1305.60;;;;;;5091209;28;20350;-66
2021/06/04 06:05:32;;;;;;;9.35;5.10;;;512.40;1305.60;;;;;;5092354;28;20020;-68
2021/06/04 06:07:58;;;;;;;10.23;4.97;;;512.60;1280.00;;;;;;5093016;28;20038;-66
2021/06/04 06:10:24;;;;;;;14.15;4.68;;;512.70;1280.00;;;;;;5092812;28;20111;-67
2021/06/04 06:12:54;;;;;;;5.93;4.15;;;512.70;1280.00;;;;;;5092582;28;20119;-67
2021/06/04 06:15:22;;;;;;;9.32;4.63;;;537.60;1280.00;;;;;;5092909;28;20466;-69
2021/06/04 06:17:48;;;;;;;6.72;3.90;;;538.10;1254.40;;;;;;5092895;28;20024;-66
2021/06/04 06:20:17;;;;;;;10.85;4.60;;;538.40;1228.80;;;;;;5090497;28;20105;-69
2021/06/04 06:22:43;;;;;;;26.02;4.80;;;563.20;1254.40;;;;;;5093421;28;20036;-65
2021/06/04 06:25:13;;;;;;;25.55;4.22;;;563.30;1254.40;;;;;;5091951;28;20028;-68
2021/06/04 06:27:39;;;;;;;12.25;3.38;;;563.40;1228.80;;;;;;5093169;28;20024;-68
2021/06/04 06:30:07;;;;;;;9.60;3.80;;;563.40;1228.80;;;;;;5092840;28;20027;-65
2021/06/04 06:32:33;;;;;;;9.85;3.70;;;563.50;1228.80;;;;;;5093339;28;20374;-70
2021/06/04 06:35:00;;;;;;;14.90;4.30;;;563.60;1203.20;;;;;;5091942;28;20032;-70
2021/06/04 06:37:25;;;;;;;5.28;3.60;;;563.80;1203.20;;;;;;5092076;28;20381;-66
2021/06/04 06:39:51;;;;;;;9.80;3.50;;;563.90;1177.60;;;;;;5090994;28;20028;-66
2021/06/04 06:42:17;;;;;;;9.07;3.08;;;564.00;1177.60;;;;;;5091792;28;20812;-68
2021/06/04 06:44:43;;;;;;;5.70;3.20;;;564.10;1177.60;;;;;;5093844;28;20488;-68
2021/06/04 06:47:08;;;;;;;6.30;3.22;;;564.10;1177.60;;;;;;5096518;28;20091;-67
2021/06/04 06:49:34;;;;;;;12.32;3.65;;;588.90;1177.60;;;;;;5096312;28;20025;-68
2021/06/04 06:52:00;;;;;;;8.77;3.80;;;589.30;1152.00;;;;;;5096030;28;20114;-67
2021/06/04 06:54:31;;;;;;;8.13;3.38;;;589.40;1126.40;;;;;;5094706;28;20161;-66
2021/06/04 06:56:58;;;;;;;7.00;3.47;;;589.70;1100.80;;;;;;5096129;28;20012;-67
2021/06/04 06:59:29;;;;;;;10.68;2.92;;;614.60;1100.80;;;;;;5096120;28;20028;-65
2021/06/04 07:01:55;;;;;;;5.93;2.97;;;615.10;1075.20;;;;;;5096064;28;20099;-66
2021/06/04 07:04:21;;;;;;;6.05;2.70;;;640.00;1049.60;;;;;;5095776;28;20071;-66
2021/06/04 07:06:47;;;;;;;6.05;3.15;;;640.30;1049.60;;;;;;5095830;28;20487;-66
2021/06/04 07:09:15;;;;;;;10.40;2.72;;;640.30;998.40;;;;;;5096300;28;20020;-65
2021/06/04 07:11:44;;;;;;;8.02;3.00;;;640.30;998.40;;;;;;5095600;28;20391;-67
2021/06/04 07:14:11;;;;;;;6.13;2.90;;;640.30;1024.00;;;;;;5095209;28;20093;-65
2021/06/04 07:16:37;;;;;;;6.97;3.33;;;640.30;998.40;;;;;;5095379;28;20078;-71
2021/06/04 07:19:05;;;;;;;11.32;2.88;;;640.70;972.80;;;;;;5095829;28;20142;-67
2021/06/04 07:21:32;;;;;;;7.28;3.10;;;665.70;972.80;;;;;;5095148;28;20020;-66
2021/06/04 07:23:58;;;;;;;8.80;3.78;;;666.00;972.80;;;;;;5094561;28;20492;-67
2021/06/04 07:26:25;;;;;;;9.52;3.35;;;666.30;947.20;;;;;;5092191;28;20111;-66
2021/06/04 07:28:51;;;;;;;15.13;2.80;;;691.20;921.60;;;;;;5094831;28;20074;-69
2021/06/04 07:31:19;;;;;;;13.82;3.15;;;691.40;896.00;;;;;;5094327;28;20024;-67
2021/06/04 07:33:48;;;;;;;4.88;2.70;;;691.70;896.00;;;;;;5094787;28;20036;-68
2021/06/04 07:36:20;;;;;;;6.05;2.38;;;691.90;870.40;;;;;;5095017;28;20028;-70
2021/06/04 07:38:47;;;;;;;7.00;2.63;;;716.80;870.40;;;;;;5095545;28;20123;-67
2021/06/04 07:41:13;;;;;;;6.72;2.13;;;717.00;844.80;;;;;;5095745;28;20016;-67
2021/06/04 07:43:43;;;;;;;3.45;2.10;;;717.20;793.60;;;;;;5095840;28;20161;-71
2021/06/04 07:46:10;;;;;;;12.32;2.40;;;717.30;793.60;;;;;;5095886;28;20077;-71
2021/06/04 07:48:36;;;;;;;12.90;3.03;;;717.50;793.60;;;;;;5095661;28;20024;-67
2021/06/04 07:51:08;;;;;;;14.07;2.50;;;742.40;793.60;;;;;;5095715;28;20020;-67
2021/06/04 07:53:35;;;;;;;7.78;2.25;;;742.50;793.60;;;;;;5095576;28;20039;-67
2021/06/04 07:56:03;;;;;;;12.05;2.10;;;742.70;768.00;;;;;;5095332;28;20082;-67
2021/06/04 07:58:30;;;;;;;7.68;2.10;;;742.80;768.00;;;;;;5095655;28;20028;-67
2021/06/04 08:00:56;;;;;;;7.20;2.28;;;743.00;768.00;;;;;;5095295;28;20485;-71
2021/06/04 08:03:26;;;;;;;8.68;2.50;;;743.10;768.00;;;;;;5095417;28;20381;-69
2021/06/04 08:05:52;;;;;;;5.28;2.17;;;743.20;742.40;;;;;;5095266;28;20062;-67
2021/06/04 08:08:19;;;;;;;4.40;1.80;;;768.00;716.80;;;;;;5095396;28;20020;-71
2021/06/04 08:10:46;;;;;;;7.60;2.63;;;768.10;716.80;;;;;;5095163;28;20492;-71
2021/06/04 08:13:15;;;;;;;4.78;2.00;;;768.30;691.20;;;;;;5095034;28;20063;-71
2021/06/04 08:15:46;;;;;;;3.60;2.10;;;768.40;691.20;;;;;;5093709;28;20541;-67
2021/06/04 08:18:12;;;;;;;4.93;2.08;;;768.50;691.20;;;;;;5093977;28;20178;-67
2021/06/04 08:20:38;;;;;;;4.18;2.03;;;768.60;691.20;;;;;;5094981;28;20016;-68
2021/06/04 08:23:11;;;;;;;4.75;2.47;;;768.70;665.60;;;;;;5094963;28;20044;-67
2021/06/04 08:25:44;;;;;;;4.03;2.03;;;793.60;691.20;;;;;;5094885;28;20020;-71
2021/06/04 08:28:09;;;;;;;3.60;1.70;;;793.70;665.60;;;;;;5095022;28;20054;-71
2021/06/04 08:30:35;;;;;;;5.75;2.20;;;793.80;640.00;;;;;;5095175;28;20458;-67
2021/06/04 08:33:03;;;;;;;6.78;2.03;;;793.90;665.60;;;;;;5094812;28;20043;-67
2021/06/04 08:35:29;;;;;;;2.97;1.95;;;794.00;665.60;;;;;;5095013;28;20051;-71
2021/06/04 08:37:56;;;;;;;2.88;1.95;;;794.10;640.00;;;;;;5094877;28;20350;-69
2021/06/04 08:40:29;;;;;;;3.97;1.95;;;794.30;665.60;;;;;;5094679;28;20470;-69
2021/06/04 08:43:21;;;;;;;1.75;1.48;;;794.30;640.00;;;;;;5094735;28;20020;-69
2021/06/04 08:46:10;;;;;;;4.97;1.85;;;794.50;614.40;;;;;;5032135;28;20481;-69
2021/06/04 08:49:01;;;;;;;5.55;1.90;;;819.20;588.80;;;;;;5032238;28;20022;-69
2021/06/04 08:51:32;;;;;;;2.58;1.90;;;819.50;588.80;;;;;;5032287;28;20037;-69
2021/06/04 08:54:30;;;;;;;4.03;1.50;;;819.70;537.60;;;;;;5032232;28;20045;-69
2021/06/04 08:57:32;;;;;;;4.20;2.10;;;819.90;537.60;;;;;;4992736;28;20049;-69
2021/06/04 08:59:59;;;;;;;6.70;2.08;;;820.10;537.60;;;;;;4992915;28;20136;-69
2021/06/04 09:02:40;;;;;;;5.20;2.38;;;844.90;588.80;;;;;;4992229;28;20101;-69
2021/06/04 09:05:21;;;;;;;3.55;2.30;;;845.00;563.20;;;;;;4992462;28;20022;-69
2021/06/04 09:07:50;;;;;;;5.00;1.75;;;845.20;563.20;;;;;;4992112;28;20033;-69
2021/06/04 09:10:32;;;;;;;6.70;1.90;;;845.30;537.60;;;;;;4992539;28;20026;-69
2021/06/04 09:13:17;;;;;;;4.25;2.20;;;845.30;537.60;;;;;;4992419;28;20044;-69
2021/06/04 09:15:45;;;;;;;7.28;3.40;;;845.40;537.60;;;;;;4992474;28;20073;-69
2021/06/04 09:18:11;;;;;;;4.10;2.60;;;845.50;537.60;;;;;;4992479;28;20380;-68
2021/06/04 09:20:57;;;;;;;4.65;2.20;;;845.50;537.60;;;;;;4992402;28;20041;-69
2021/06/04 09:23:36;;;;;;;6.57;2.72;;;845.70;512.00;;;;;;5052038;28;20433;-69
2021/06/04 09:26:04;;;;;;;3.33;2.10;;;870.40;537.60;;;;;;5071764;28;20028;-69
2021/06/04 09:28:47;;;;;;;3.45;2.13;;;870.40;512.00;;;;;;5071627;28;20352;-69
2021/06/04 09:31:36;;;;;;;3.88;1.65;;;870.50;512.00;;;;;;5071388;28;20028;-69
2021/06/04 09:34:26;;;;;;;4.20;2.10;;;870.60;512.00;;;;;;5089839;28;20036;-69
2021/06/04 09:37:00;;;;;;;6.32;2.00;;;845.70;512.00;;;;;;5031562;28;20037;-69
2021/06/04 09:39:47;;;;;;;4.43;2.13;;;845.30;537.60;;;;;;5031667;28;20514;-68
2021/06/04 09:42:15;;;;;;;6.35;2.05;;;820.10;512.00;;;;;;5031712;28;20030;-69
2021/06/04 09:44:58;;;;;;;3.53;1.85;;;819.70;537.60;;;;;;5031613;28;20033;-68
2021/06/04 09:47:44;;;;;;;2.40;1.88;;;819.40;563.20;;;;;;5031453;28;20073;-68
2021/06/04 09:50:19;;;;;;;4.60;2.05;;;819.60;563.20;;;;;;5031473;28;20068;-69
2021/06/04 09:52:46;;;;;;;5.78;2.08;;;819.80;563.20;;;;;;5031550;28;20037;-69
2021/06/04 09:55:21;;;;;;;6.07;1.85;;;820.10;537.60;;;;;;5031446;28;20417;-69
2021/06/04 09:58:14;;;;;;;3.80;1.90;;;819.90;537.60;;;;;;5031410;28;20026;-69
2021/06/04 10:00:50;;;;;;;7.07;1.85;;;819.60;537.60;;;;;;5031372;28;20125;-69
2021/06/04 10:03:30;;;;;;;2.28;1.48;;;819.40;563.20;;;;;;5031523;28;20052;-69
2021/06/04 10:06:08;;;;;;;6.50;2.00;;;819.30;537.60;;;;;;5031318;28;20029;-69
2021/06/04 10:08:50;;;;;;;6.13;2.35;;;819.60;537.60;;;;;;5031219;28;20039;-69
2021/06/04 10:11:23;;;;;;;7.85;2.72;;;819.70;537.60;;;;;;5031333;28;20032;-69
2021/06/04 10:13:55;;;;;;;2.00;1.80;;;820.00;537.60;;;;;;5060852;28;20442;-68
2021/06/04 10:16:39;;;;;;;4.60;1.83;;;844.80;537.60;;;;;;5093303;28;20031;-68
2021/06/04 10:19:20;;;;;;;2.10;1.80;;;844.90;537.60;;;;;;5095212;28;20043;-69
2021/06/04 10:21:47;;;;;;;4.32;1.98;;;845.10;512.00;;;;;;5097467;28;20351;-69
2021/06/04 10:24:43;;;;;;;4.72;2.15;;;845.30;512.00;;;;;;5097159;28;20048;-69
2021/06/04 10:27:20;;;;;;;5.25;2.35;;;845.50;512.00;;;;;;5097220;28;20020;-69
2021/06/04 10:30:09;;;;;;;5.43;2.60;;;845.60;537.60;;;;;;5095907;28;20497;-69
2021/06/04 10:32:59;;;;;;;9.38;5.32;;;845.70;512.00;;;;;;5097299;28;20024;-69
2021/06/04 10:35:41;;;;;;;5.53;3.22;;;870.40;512.00;;;;;;5034706;28;20045;-69
2021/06/04 10:38:38;;;;;;;2.92;2.15;;;870.60;512.00;;;;;;5034728;28;20379;-69
2021/06/04 10:41:10;;;;;;;8.70;3.72;;;870.70;512.00;;;;;;4995185;28;20049;-69
2021/06/04 10:43:44;;;;;;;5.57;3.50;;;870.70;512.00;;;;;;4995070;28;20046;-69
2021/06/04 10:46:38;;;;;;;1.98;1.80;;;870.80;486.40;;;;;;4995341;28;20040;-69
2021/06/04 10:49:45;;;;;;;6.40;2.07;;;870.80;435.20;;;;;;4995397;28;20058;-69
2021/06/04 10:52:37;;;;;;;2.67;1.90;;;870.80;460.80;;;;;;4995118;28;20043;-69
2021/06/04 10:55:15;;;;;;;7.65;2.22;;;870.90;460.80;;;;;;4994369;28;20042;-68
2021/06/04 10:58:04;;;;;;;4.00;1.70;;;870.90;486.40;;;;;;4994952;28;20089;-67
2021/06/04 11:00:50;;;;;;;3.45;1.92;;;871.00;460.80;;;;;;4994970;28;20153;-69
2021/06/04 11:03:40;;;;;;;4.00;1.95;;;871.00;435.20;;;;;;4994651;28;20109;-67
2021/06/04 11:06:08;;;;;;;9.02;1.83;;;870.80;435.20;;;;;;4936374;28;20050;-70
2021/06/04 11:08:56;;;;;;;3.83;1.90;;;870.50;460.80;;;;;;4936672;29;20425;-69
2021/06/04 11:11:25;;;;;;;3.53;2.10;;;870.60;460.80;;;;;;4936058;28;20032;-67
2021/06/04 11:14:24;;;;;;;4.47;1.80;;;870.60;460.80;;;;;;4993476;28;20049;-68
2021/06/04 11:17:01;;;;;;;3.88;1.70;;;870.40;486.40;;;;;;5004421;28;20499;-67
2021/06/04 11:19:37;;;;;;;5.10;1.73;;;845.40;512.00;;;;;;5033906;28;20053;-68
2021/06/04 11:22:13;;;;;;;2.85;1.90;;;845.00;512.00;;;;;;5034356;28;20029;-68
2021/06/04 11:24:47;;;;;;;4.93;2.10;;;845.10;512.00;;;;;;5033735;28;20076;-69
2021/06/04 11:27:27;;;;;;;5.25;2.05;;;845.30;512.00;;;;;;5033713;28;20561;-68
2021/06/04 11:29:54;;;;;;;4.03;1.95;;;845.50;512.00;;;;;;5032646;28;20065;-67
2021/06/04 11:32:58;;;;;;;5.55;1.67;;;870.40;512.00;;;;;;5033651;28;20025;-69
2021/06/04 11:35:28;;;;;;;3.00;1.77;;;870.50;486.40;;;;;;4955453;29;20051;-66
2021/06/04 11:38:15;;;;;;;4.00;1.77;;;870.70;486.40;;;;;;4955485;29;20117;-69
2021/06/04 11:40:49;;;;;;;6.88;2.28;;;870.80;486.40;;;;;;4955829;29;20356;-66
2021/06/04 11:43:15;;;;;;;2.70;1.90;;;870.40;512.00;;;;;;4996613;28;20033;-67
2021/06/04 11:45:45;;;;;;;4.00;2.05;;;845.30;512.00;;;;;;5033642;28;20053;-70
2021/06/04 11:48:25;;;;;;;32.30;2.85;;;844.90;537.60;;;;;;5033424;28;20029;-69
2021/06/04 11:51:17;;;;;;;42.45;4.57;;;819.70;537.60;;;;;;5033283;28;20026;-68
2021/06/04 11:53:43;;;;;;;10.90;2.25;;;819.20;563.20;;;;;;5033191;28;20069;-67
2021/06/04 11:56:31;;;;;;;10.07;2.33;;;794.20;563.20;;;;;;5033768;28;20491;-69
2021/06/04 11:58:57;;;;;;;4.40;2.25;;;793.90;563.20;;;;;;5016463;28;20040;-70
2021/06/04 12:01:22;;;;;;;10.60;2.30;;;794.10;588.80;;;;;;5033099;28;20100;-69
2021/06/04 12:04:19;;;;;;;3.15;2.08;;;794.40;563.20;;;;;;5033116;28;20056;-71
2021/06/04 12:07:04;;;;;;;33.38;5.22;;;819.40;563.20;;;;;;5033229;28;20037;-70
2021/06/04 12:09:33;;;;;;;31.10;5.72;;;819.20;614.40;;;;;;5033082;28;20029;-69
2021/06/04 12:12:17;;;;;;;11.75;3.20;;;819.20;614.40;;;;;;5060256;28;20036;-68
2021/06/04 12:15:02;;;;;;;;;;;819.50;563.20;;;;;;5095742;28;20036;-66
2021/06/04 12:17:36;;;;;;;4.88;2.00;;;819.70;563.20;;;;;;5095191;28;19904;-68
2021/06/04 12:20:22;;;;;;;7.97;2.83;;;819.90;512.00;;;;;;5093952;28;20028;-70
2021/06/04 12:23:10;;;;;;;9.07;2.70;;;844.80;512.00;;;;;;5094862;28;20131;-69
2021/06/04 12:25:41;;;;;;;7.10;2.45;;;820.10;512.00;;;;;;5095042;28;20027;-69
2021/06/04 12:28:29;;;;;;;11.30;3.05;;;819.70;537.60;;;;;;5094996;28;20024;-68
2021/06/04 12:31:03;;;;;;;6.10;2.20;;;819.30;563.20;;;;;;5094262;28;20040;-69
2021/06/04 12:33:33;;;;;;;7.82;2.03;;;794.20;563.20;;;;;;5094297;28;20059;-69
2021/06/04 12:35:59;;;;;;;5.25;2.40;;;793.80;588.80;;;;;;5094893;28;20028;-69
2021/06/04 12:38:30;;;;;;;5.90;2.30;;;768.80;588.80;;;;;;5094793;28;20073;-69
2021/06/04 12:40:56;;;;;;;4.45;2.50;;;768.70;588.80;;;;;;5094942;28;20074;-69
2021/06/04 12:43:30;;;;;;;5.00;2.10;;;768.90;588.80;;;;;;5093840;28;20036;-68
2021/06/04 12:46:24;;;;;;;4.43;2.00;;;793.80;588.80;;;;;;5094714;28;20028;-69